createdAt,value
2018-03-06T00:01:46.862Z,56.40
2018-03-06T00:04:17.683Z,57.80
2018-03-06T00:06:48.524Z,62.63
2018-03-06T00:09:19.356Z,66.90
2018-03-06T00:11:50.193Z,55.53
2018-03-06T00:14:21.065Z,54.37
2018-03-06T00:16:51.895Z,58.20
2018-03-06T00:19:22.689Z,56.40
2018-03-06T00:21:53.510Z,64.00
2018-03-06T00:24:24.347Z,60.20
2018-03-06T00:26:55.169Z,57.17
2018-03-06T00:29:26.007Z,68.00
2018-03-06T00:31:56.815Z,61.37
2018-03-06T00:34:27.689Z,67.20
2018-03-06T00:36:58.508Z,57.53
2018-03-06T00:39:29.325Z,64.77
2018-03-06T00:42:00.129Z,61.73
2018-03-06T00:44:30.960Z,52.17
2018-03-06T00:47:02.560Z,53.10
2018-03-06T00:49:33.434Z,66.82
2018-03-06T00:52:04.256Z,58.23
2018-03-06T00:54:35.070Z,62.53
2018-03-06T00:57:05.860Z,56.67
2018-03-06T00:59:36.710Z,70.20
2018-03-06T01:02:07.529Z,57.70
2018-03-06T01:04:38.344Z,66.67
2018-03-06T01:07:09.137Z,55.47
2018-03-06T01:09:39.953Z,63.07
2018-03-06T01:12:10.776Z,61.87
2018-03-06T01:14:41.574Z,62.70
2018-03-06T01:17:12.366Z,59.47
2018-03-06T01:19:43.183Z,62.80
2018-03-06T01:22:13.990Z,71.97
2018-03-06T01:24:44.857Z,60.67
2018-03-06T01:27:15.679Z,62.13
2018-03-06T01:29:46.538Z,59.83
2018-03-06T01:32:17.365Z,59.67
2018-03-06T01:34:48.206Z,64.50
2018-03-06T01:37:19.025Z,58.33
2018-03-06T01:39:49.897Z,66.90
2018-03-06T01:42:20.743Z,60.90
2018-03-06T01:44:51.625Z,63.63
2018-03-06T01:47:22.492Z,60.13
2018-03-06T01:49:53.326Z,58.53
2018-03-06T01:52:24.160Z,57.87
2018-03-06T01:54:54.997Z,59.73
2018-03-06T01:57:25.793Z,63.77
2018-03-06T01:59:56.700Z,56.33
2018-03-06T02:02:27.514Z,58.10
2018-03-06T02:04:58.578Z,61.30
2018-03-06T02:07:29.398Z,59.28
2018-03-06T02:10:00.262Z,54.20
2018-03-06T02:12:31.107Z,54.10
2018-03-06T02:15:01.943Z,55.30
2018-03-06T02:17:32.789Z,67.93
2018-03-06T02:20:03.629Z,52.60
2018-03-06T02:22:34.488Z,62.80
2018-03-06T02:25:05.302Z,59.23
2018-03-06T02:27:36.115Z,66.90
2018-03-06T02:30:07.778Z,55.33
2018-03-06T02:32:38.580Z,59.57
2018-03-06T02:35:09.415Z,58.50
2018-03-06T02:37:40.207Z,57.90
2018-03-06T02:40:11.057Z,61.67
2018-03-06T02:42:41.911Z,60.10
2018-03-06T02:45:12.749Z,60.67
2018-03-06T02:47:43.587Z,60.93
2018-03-06T02:50:14.403Z,66.73
2018-03-06T02:52:45.218Z,59.10
2018-03-06T02:55:16.039Z,63.97
2018-03-06T02:57:46.886Z,56.20
2018-03-06T03:00:17.812Z,62.73
2018-03-06T03:02:48.645Z,57.67
2018-03-06T03:05:19.588Z,58.10
2018-03-06T03:07:50.485Z,59.50
2018-03-06T03:10:21.412Z,51.80
2018-03-06T03:12:52.263Z,57.73
2018-03-06T03:15:23.160Z,65.90
2018-03-06T03:17:54.038Z,58.43
2018-03-06T03:20:24.973Z,57.63
2018-03-06T03:22:56.858Z,60.13
2018-03-06T03:25:27.767Z,57.45
2018-03-06T03:27:58.705Z,57.97
2018-03-06T03:30:29.673Z,63.73
2018-03-06T03:33:00.519Z,63.35
2018-03-06T03:35:31.407Z,58.43
2018-03-06T03:38:02.269Z,58.00
2018-03-06T03:40:33.136Z,62.80
2018-03-06T03:43:04.037Z,61.53
2018-03-06T03:45:34.870Z,64.17
2018-03-06T03:48:05.723Z,68.20
2018-03-06T03:50:36.678Z,67.63
2018-03-06T03:53:07.566Z,55.80
2018-03-06T03:55:38.498Z,59.70
2018-03-06T03:58:09.335Z,56.60
2018-03-06T04:00:40.187Z,55.83
2018-03-06T04:03:11.047Z,57.30
2018-03-06T04:05:41.910Z,56.27
2018-03-06T04:08:12.783Z,58.10
2018-03-06T04:10:43.654Z,61.80
2018-03-06T04:13:14.583Z,53.93
2018-03-06T04:15:45.466Z,63.17
2018-03-06T04:18:16.328Z,60.77
2018-03-06T04:20:47.165Z,60.73
2018-03-06T04:23:18.043Z,58.17
2018-03-06T04:25:49.020Z,62.73
2018-03-06T04:28:20.802Z,64.28
2018-03-06T04:30:51.774Z,54.83
2018-03-06T04:33:22.664Z,50.72
2018-03-06T04:35:53.631Z,63.17
2018-03-06T04:38:24.486Z,63.28
2018-03-06T04:40:55.424Z,67.80
2018-03-06T04:43:26.290Z,55.07
2018-03-06T04:45:57.175Z,59.93
2018-03-06T04:48:28.038Z,52.23
2018-03-06T04:50:59.896Z,64.80
2018-03-06T04:53:30.735Z,60.00
2018-03-06T04:56:01.647Z,56.80
2018-03-06T04:58:32.618Z,58.20
2018-03-06T05:01:04.503Z,52.03
2018-03-06T05:03:35.397Z,57.28
2018-03-06T05:06:06.327Z,64.33
2018-03-06T05:08:37.194Z,59.00
2018-03-06T05:11:08.027Z,57.70
2018-03-06T05:13:38.856Z,59.67
2018-03-06T05:16:09.809Z,61.97
2018-03-06T05:18:40.755Z,67.93
2018-03-06T05:21:11.646Z,59.77
2018-03-06T05:23:42.481Z,59.73
2018-03-06T05:26:13.388Z,56.47
2018-03-06T05:28:44.246Z,61.27
2018-03-06T05:31:15.105Z,61.77
2018-03-06T05:33:45.938Z,56.77
2018-03-06T05:36:16.824Z,57.40
2018-03-06T05:38:47.659Z,59.10
2018-03-06T05:41:18.525Z,51.67
2018-03-06T05:43:49.349Z,56.93
2018-03-06T05:46:20.249Z,56.83
2018-03-06T05:48:51.083Z,55.93
2018-03-06T05:51:21.912Z,59.80
2018-03-06T05:53:52.822Z,56.80
2018-03-06T05:56:23.711Z,55.90
2018-03-06T05:58:54.542Z,55.73
2018-03-06T06:01:25.380Z,63.77
2018-03-06T06:03:56.227Z,62.40
2018-03-06T06:06:27.101Z,61.80
2018-03-06T06:08:57.922Z,66.90
2018-03-06T06:11:29.566Z,58.17
2018-03-06T06:14:00.466Z,51.60
2018-03-06T06:16:31.343Z,57.13
2018-03-06T06:19:02.140Z,57.50
2018-03-06T06:21:32.980Z,49.50
2018-03-06T06:24:03.841Z,55.87
2018-03-06T06:26:34.675Z,60.37
2018-03-06T06:29:05.528Z,53.17
2018-03-06T06:31:36.342Z,54.93
2018-03-06T06:34:07.218Z,57.17
2018-03-06T06:36:38.023Z,59.20
2018-03-06T06:39:08.921Z,62.70
2018-03-06T06:41:39.838Z,53.53
2018-03-06T06:44:10.639Z,54.67
2018-03-06T06:46:41.466Z,53.60
2018-03-06T06:49:12.316Z,60.63
2018-03-06T06:51:43.134Z,59.67
2018-03-06T06:54:13.949Z,59.80
2018-03-06T06:56:44.756Z,54.23
2018-03-06T06:59:15.548Z,55.20
2018-03-06T07:01:46.340Z,59.30
2018-03-06T07:04:17.109Z,55.67
2018-03-06T07:06:47.948Z,48.13
2018-03-06T07:09:18.750Z,50.37
2018-03-06T07:11:49.559Z,61.70
2018-03-06T07:14:20.358Z,56.90
2018-03-06T07:16:51.201Z,48.87
2018-03-06T07:19:22.041Z,62.53
2018-03-06T07:21:52.845Z,54.73
2018-03-06T07:24:23.653Z,47.20
2018-03-06T07:26:54.486Z,47.27
2018-03-06T07:29:25.252Z,48.97
2018-03-06T07:31:56.049Z,47.17
2018-03-06T07:34:26.837Z,50.30
2018-03-06T07:36:57.689Z,46.27
2018-03-06T07:39:28.464Z,46.30
2018-03-06T07:41:59.281Z,46.67
2018-03-06T07:44:30.098Z,44.27
2018-03-06T07:47:01.041Z,52.17
2018-03-06T07:49:31.877Z,53.63
2018-03-06T07:52:03.656Z,48.43
2018-03-06T07:54:34.522Z,48.75
2018-03-06T07:57:05.390Z,47.87
2018-03-06T07:59:36.201Z,49.43
2018-03-06T08:02:07.054Z,44.93
2018-03-06T08:04:37.856Z,51.53
2018-03-06T08:07:08.677Z,44.63
2018-03-06T08:09:39.534Z,47.20
2018-03-06T08:12:10.347Z,49.80
2018-03-06T08:14:41.155Z,52.77
2018-03-06T08:17:11.974Z,48.50
2018-03-06T08:19:42.809Z,50.20
2018-03-06T08:22:13.646Z,49.53
2018-03-06T08:24:44.499Z,50.27
2018-03-06T08:27:15.342Z,44.83
2018-03-06T08:29:46.191Z,44.30
2018-03-06T08:32:17.023Z,45.70
2018-03-06T08:34:47.848Z,51.60
2018-03-06T08:37:18.718Z,51.07
2018-03-06T08:39:49.557Z,50.20
2018-03-06T08:42:23.501Z,54.40
2018-03-06T08:44:54.332Z,55.30
2018-03-06T08:47:25.188Z,50.53
2018-03-06T08:49:55.967Z,45.27
2018-03-06T08:52:28.897Z,46.90
2018-03-06T08:54:59.691Z,46.35
2018-03-06T08:57:31.548Z,51.00
2018-03-06T09:00:02.441Z,47.35
2018-03-06T09:02:33.308Z,42.50
2018-03-06T09:05:04.113Z,43.83
2018-03-06T09:07:34.957Z,50.90
2018-03-06T09:10:05.834Z,51.50
2018-03-06T09:12:36.693Z,50.50
2018-03-06T09:15:07.598Z,48.83
2018-03-06T09:17:38.473Z,51.33
2018-03-06T09:20:09.309Z,48.80
2018-03-06T09:22:40.138Z,47.60
2018-03-06T09:25:10.958Z,48.57
2018-03-06T09:27:41.741Z,42.57
2018-03-06T09:30:12.570Z,44.93
2018-03-06T09:32:43.366Z,42.50
2018-03-06T09:35:14.162Z,46.37
2018-03-06T09:37:44.959Z,40.97
2018-03-06T09:40:15.885Z,47.93
2018-03-06T09:42:46.699Z,46.27
2018-03-06T09:45:17.525Z,48.53
2018-03-06T09:47:48.361Z,47.27
2018-03-06T09:50:19.223Z,50.47
2018-03-06T09:52:51.026Z,47.03
2018-03-06T09:55:21.850Z,44.60
2018-03-06T09:57:52.661Z,48.13
2018-03-06T10:00:23.467Z,43.33
2018-03-06T10:02:55.306Z,47.10
2018-03-06T10:05:26.133Z,48.15
2018-03-06T10:07:56.956Z,45.83
2018-03-06T10:10:27.796Z,42.57
2018-03-06T10:12:58.635Z,50.83
2018-03-06T10:15:29.473Z,46.47
2018-03-06T10:18:00.281Z,46.60
2018-03-06T10:20:31.093Z,47.37
2018-03-06T10:23:01.905Z,40.23
2018-03-06T10:25:33.446Z,44.30
2018-03-06T10:28:04.290Z,45.67
2018-03-06T10:30:35.090Z,52.50
2018-03-06T10:33:05.899Z,45.00
2018-03-06T10:35:36.732Z,47.47
2018-03-06T10:38:07.583Z,40.73
2018-03-06T10:40:39.035Z,47.03
2018-03-06T10:43:09.857Z,45.83
2018-03-06T10:45:40.672Z,49.17
2018-03-06T10:48:11.470Z,46.80
2018-03-06T10:50:42.310Z,47.00
2018-03-06T10:53:13.168Z,42.00
2018-03-06T10:55:43.990Z,43.80
2018-03-06T10:58:14.790Z,42.97
2018-03-06T11:00:46.566Z,45.83
2018-03-06T11:03:22.368Z,46.22
2018-03-06T11:05:53.199Z,48.67
2018-03-06T11:08:24.006Z,40.53
2018-03-06T11:10:54.834Z,44.80
2018-03-06T11:13:25.632Z,44.30
2018-03-06T11:15:56.478Z,44.90
2018-03-06T11:18:27.338Z,47.70
2018-03-06T11:20:58.230Z,48.57
2018-03-06T11:23:29.126Z,40.77
2018-03-06T11:25:59.948Z,39.13
2018-03-06T11:28:30.730Z,45.40
2018-03-06T11:31:01.610Z,42.37
2018-03-06T11:33:32.405Z,39.80
2018-03-06T11:36:03.364Z,42.53
2018-03-06T11:38:34.226Z,48.10
2018-03-06T11:41:06.097Z,39.97
2018-03-06T11:43:36.905Z,46.85
2018-03-06T11:46:07.726Z,39.13
2018-03-06T11:48:38.534Z,47.73
2018-03-06T11:51:09.326Z,48.27
2018-03-06T11:53:40.186Z,44.50
2018-03-06T11:56:11.046Z,42.23
2018-03-06T11:58:41.849Z,35.03
2018-03-06T12:01:13.736Z,43.07
2018-03-06T12:03:45.654Z,41.23
2018-03-06T12:06:16.509Z,37.95
2018-03-06T12:08:47.371Z,37.60
2018-03-06T12:11:18.421Z,41.37
2018-03-06T12:13:49.235Z,40.45
2018-03-06T12:16:20.134Z,36.33
2018-03-06T12:18:50.929Z,40.70
2018-03-06T12:21:21.805Z,43.37
2018-03-06T12:23:52.621Z,37.47
2018-03-06T12:26:23.464Z,40.87
2018-03-06T12:28:54.269Z,38.47
2018-03-06T12:31:25.082Z,43.40
2018-03-06T12:33:55.873Z,33.33
2018-03-06T12:36:26.710Z,38.67
2018-03-06T12:38:57.526Z,38.17
2018-03-06T12:41:28.406Z,37.53
2018-03-06T12:43:59.198Z,34.00
2018-03-06T12:46:29.998Z,37.77
2018-03-06T12:49:00.792Z,36.50
2018-03-06T12:51:31.601Z,38.03
2018-03-06T12:54:02.423Z,37.77
2018-03-06T12:56:33.241Z,39.00
2018-03-06T12:59:04.055Z,32.00
2018-03-06T13:01:34.911Z,32.83
2018-03-06T13:04:05.725Z,33.77
2018-03-06T13:06:37.590Z,33.37
2018-03-06T13:09:08.413Z,30.12
2018-03-06T13:11:39.300Z,37.00
2018-03-06T13:14:10.135Z,38.13
2018-03-06T13:16:41.040Z,41.87
2018-03-06T13:19:11.867Z,41.20
2018-03-06T13:21:42.878Z,38.07
2018-03-06T13:24:14.313Z,41.50
2018-03-06T13:26:45.153Z,36.42
2018-03-06T13:29:15.957Z,42.27
2018-03-06T13:31:46.783Z,40.73
2018-03-06T13:34:17.706Z,39.77
2018-03-06T13:36:48.641Z,37.17
2018-03-06T13:39:19.453Z,36.97
2018-03-06T13:41:50.268Z,33.90
2018-03-06T13:44:21.097Z,38.57
2018-03-06T13:46:51.937Z,40.20
2018-03-06T13:49:22.750Z,39.10
2018-03-06T13:51:53.586Z,40.53
2018-03-06T13:54:24.416Z,36.87
2018-03-06T13:56:55.273Z,40.87
2018-03-06T13:59:26.113Z,42.00
2018-03-06T14:02:00.551Z,40.73
2018-03-06T14:04:31.351Z,40.55
2018-03-06T14:07:02.171Z,45.80
2018-03-06T14:09:32.949Z,43.90
2018-03-06T14:12:03.835Z,40.40
2018-03-06T14:14:35.754Z,41.47
2018-03-06T14:17:06.594Z,44.22
2018-03-06T14:19:37.407Z,50.43
2018-03-06T14:22:08.250Z,47.10
2018-03-06T14:24:39.032Z,42.33
2018-03-06T14:27:10.888Z,50.30
2018-03-06T14:29:41.688Z,45.22
2018-03-06T14:32:12.572Z,48.17
2018-03-06T14:34:43.401Z,59.07
2018-03-06T14:37:14.248Z,49.73
2018-03-06T14:39:45.089Z,45.00
2018-03-06T14:42:15.926Z,49.00
2018-03-06T14:44:46.741Z,48.57
2018-03-06T14:47:17.626Z,54.07
2018-03-06T14:49:48.460Z,50.30
2018-03-06T14:52:19.317Z,48.07
2018-03-06T14:54:51.166Z,48.57
2018-03-06T14:57:22.141Z,54.30
2018-03-06T14:59:52.950Z,49.20
2018-03-06T15:02:23.869Z,48.00
2018-03-06T15:04:54.726Z,45.50
2018-03-06T15:07:25.627Z,49.20
2018-03-06T15:09:57.517Z,50.87
2018-03-06T15:12:28.433Z,50.63
2018-03-06T15:14:59.373Z,51.80
2018-03-06T15:17:30.328Z,45.67
2018-03-06T15:20:01.187Z,48.50
2018-03-06T15:22:32.106Z,51.30
2018-03-06T15:25:02.959Z,50.20
2018-03-06T15:27:33.906Z,49.40
2018-03-06T15:30:04.818Z,50.27
2018-03-06T15:32:35.654Z,51.37
2018-03-06T15:35:06.494Z,53.70
2018-03-06T15:37:37.321Z,55.20
2018-03-06T15:40:08.113Z,52.10
2018-03-06T15:42:39.961Z,51.03
2018-03-06T15:45:11.835Z,46.55
2018-03-06T15:47:42.751Z,56.83
2018-03-06T15:50:13.557Z,49.30
2018-03-06T15:52:44.406Z,53.03
2018-03-06T15:55:15.261Z,47.20
2018-03-06T15:57:46.137Z,50.17
2018-03-06T16:00:16.936Z,52.20
2018-03-06T16:02:47.756Z,49.50
2018-03-06T16:05:18.597Z,57.33
2018-03-06T16:07:49.468Z,56.73
2018-03-06T16:10:20.382Z,60.63
2018-03-06T16:12:51.298Z,54.70
2018-03-06T16:15:23.032Z,62.17
2018-03-06T16:17:53.858Z,59.72
2018-03-06T16:20:24.775Z,50.50
2018-03-06T16:22:55.629Z,57.87
2018-03-06T16:25:26.471Z,57.27
2018-03-06T16:27:57.304Z,63.03
2018-03-06T16:30:29.188Z,63.30
2018-03-06T16:33:00.020Z,65.05
2018-03-06T16:35:30.821Z,69.50
2018-03-06T16:38:01.660Z,67.93
2018-03-06T16:40:32.501Z,69.90
2018-03-06T16:43:03.365Z,58.63
2018-03-06T16:45:36.186Z,72.23
2018-03-06T16:48:07.052Z,68.65
2018-03-06T16:50:37.890Z,69.67
2018-03-06T16:53:08.726Z,73.27
2018-03-06T16:55:39.527Z,66.03
2018-03-06T16:58:10.410Z,66.47
2018-03-06T17:00:41.207Z,73.97
2018-03-06T17:03:12.030Z,69.37
2018-03-06T17:05:42.802Z,74.20
2018-03-06T17:08:13.751Z,61.67
2018-03-06T17:10:44.557Z,70.03
2018-03-06T17:13:15.399Z,75.17
2018-03-06T17:15:46.205Z,78.00
2018-03-06T17:18:17.038Z,79.80
2018-03-06T17:20:47.825Z,78.23
2018-03-06T17:23:18.699Z,70.87
2018-03-06T17:25:49.510Z,64.27
2018-03-06T17:28:20.322Z,67.40
2018-03-06T17:30:51.143Z,82.00
2018-03-06T17:33:21.943Z,70.60
2018-03-06T17:35:52.744Z,72.27
2018-03-06T17:38:23.526Z,65.57
2018-03-06T17:40:54.344Z,75.57
2018-03-06T17:43:25.162Z,75.10
2018-03-06T17:45:55.951Z,67.87
2018-03-06T17:48:26.795Z,70.47
2018-03-06T17:50:57.594Z,65.63
2018-03-06T17:53:28.410Z,79.27
2018-03-06T17:55:59.260Z,68.57
2018-03-06T17:58:30.102Z,69.13
2018-03-06T18:01:00.933Z,69.73
2018-03-06T18:03:31.863Z,74.53
2018-03-06T18:06:02.717Z,68.20
2018-03-06T18:08:33.558Z,73.60
2018-03-06T18:11:04.402Z,77.30
2018-03-06T18:13:35.232Z,76.10
2018-03-06T18:16:06.038Z,80.73
2018-03-06T18:18:36.893Z,71.33
2018-03-06T18:21:07.747Z,79.83
2018-03-06T18:23:38.584Z,74.93
2018-03-06T18:26:09.423Z,75.90
2018-03-06T18:28:40.258Z,67.73
2018-03-06T18:31:11.078Z,68.37
2018-03-06T18:33:42.946Z,71.83
2018-03-06T18:36:13.741Z,69.85
2018-03-06T18:38:44.562Z,69.70
2018-03-06T18:41:15.402Z,76.97
2018-03-06T18:43:46.283Z,71.63
2018-03-06T18:46:17.115Z,65.67
2018-03-06T18:48:47.950Z,73.63
2018-03-06T18:51:18.822Z,73.97
2018-03-06T18:53:50.656Z,70.77
2018-03-06T18:56:21.525Z,72.40
2018-03-06T18:58:52.389Z,72.60
2018-03-06T19:04:52.257Z,76.40
2018-03-06T19:07:24.169Z,81.20
2018-03-06T19:09:56.018Z,74.62
2018-03-06T19:12:27.865Z,108.95
2018-03-06T19:14:58.686Z,86.95
2018-03-06T19:17:29.498Z,90.07
2018-03-06T19:20:00.358Z,92.27
2018-03-06T19:22:31.197Z,77.97
2018-03-06T19:25:02.055Z,88.67
2018-03-06T19:27:32.862Z,77.53
2018-03-06T19:30:03.703Z,81.17
2018-03-06T19:32:34.534Z,82.07
2018-03-06T19:35:05.385Z,80.10
2018-03-06T19:37:37.314Z,93.20
2018-03-06T19:40:08.167Z,85.45
2018-03-06T19:42:39.077Z,96.13
2018-03-06T19:45:10.994Z,90.47
2018-03-06T19:47:41.863Z,92.22
2018-03-06T19:50:12.721Z,91.20
2018-03-06T19:52:43.525Z,84.47
2018-03-06T19:55:14.395Z,85.70
2018-03-06T19:57:46.034Z,89.37
2018-03-06T20:00:17.914Z,94.43
2018-03-06T20:02:48.773Z,87.88
2018-03-06T20:05:19.690Z,107.17
2018-03-06T20:07:50.553Z,92.70
2018-03-06T20:10:21.402Z,80.63
2018-03-06T20:12:52.221Z,101.00
2018-03-06T20:15:23.061Z,90.90
2018-03-06T20:17:53.933Z,93.10
2018-03-06T20:20:24.882Z,96.77
2018-03-06T20:22:55.773Z,89.57
2018-03-06T20:25:32.710Z,89.90
2018-03-06T20:28:03.528Z,92.03
2018-03-06T20:30:41.495Z,84.10
2018-03-06T20:33:15.292Z,83.40
2018-03-06T20:35:46.136Z,91.12
2018-03-06T20:38:23.110Z,87.83
2018-03-06T20:40:53.990Z,73.93
2018-03-06T20:43:24.807Z,91.20
2018-03-06T20:46:01.967Z,83.70
2018-03-06T20:48:39.793Z,88.22
2018-03-06T20:51:10.768Z,85.25
2018-03-06T20:53:47.679Z,84.57
2018-03-06T20:56:19.583Z,90.62
2018-03-06T20:58:50.463Z,89.47
2018-03-06T21:01:21.321Z,102.20
2018-03-06T21:03:52.136Z,98.13
2018-03-06T21:06:22.973Z,91.77
2018-03-06T21:08:53.739Z,91.90
2018-03-06T21:11:25.502Z,91.40
2018-03-06T21:13:56.407Z,86.30
2018-03-06T21:16:27.217Z,82.10
2018-03-06T21:18:58.036Z,98.83
2018-03-06T21:21:28.971Z,84.10
2018-03-06T21:23:59.869Z,90.30
2018-03-06T21:26:30.722Z,97.50
2018-03-06T21:29:01.555Z,100.70
2018-03-06T21:31:32.424Z,100.50
2018-03-06T21:34:03.253Z,98.70
2018-03-06T21:36:34.190Z,88.63
2018-03-06T21:39:05.078Z,93.47
2018-03-06T21:41:35.902Z,91.47
2018-03-06T21:44:06.775Z,90.97
2018-03-06T21:46:37.647Z,88.07
2018-03-06T21:49:08.473Z,103.83
2018-03-06T21:51:39.319Z,84.37
2018-03-06T21:54:10.346Z,89.90
2018-03-06T21:56:41.194Z,98.07
2018-03-06T21:59:12.024Z,104.37
2018-03-06T22:01:42.855Z,88.53
2018-03-06T22:04:13.669Z,100.43
2018-03-06T22:06:44.542Z,84.83
2018-03-06T22:09:15.340Z,99.30
2018-03-06T22:11:46.150Z,88.07
2018-03-06T22:14:16.994Z,87.67
2018-03-06T22:16:47.845Z,81.73
2018-03-06T22:19:18.728Z,93.27
2018-03-06T22:21:49.545Z,112.73
2018-03-06T22:24:20.379Z,104.77
2018-03-06T22:26:51.192Z,107.67
2018-03-06T22:29:22.103Z,97.00
2018-03-06T22:31:52.968Z,108.90
2018-03-06T22:34:23.875Z,108.37
2018-03-06T22:36:54.717Z,95.50
2018-03-06T22:39:25.612Z,110.80
2018-03-06T22:41:56.440Z,90.17
2018-03-06T22:44:27.255Z,98.07
2018-03-06T22:46:58.072Z,88.53
2018-03-06T22:49:28.913Z,91.93
2018-03-06T22:51:59.722Z,94.00
2018-03-06T22:54:30.559Z,84.13
2018-03-06T22:57:01.449Z,85.70
2018-03-06T22:59:32.296Z,101.00
2018-03-06T23:02:03.133Z,95.80
2018-03-06T23:04:34.009Z,99.40
2018-03-06T23:07:04.806Z,99.13
2018-03-06T23:09:35.651Z,96.27
2018-03-06T23:12:06.501Z,94.60
2018-03-06T23:14:37.326Z,117.30
2018-03-06T23:17:08.315Z,90.33
2018-03-06T23:19:39.153Z,98.72
2018-03-06T23:22:09.983Z,94.10
2018-03-06T23:24:40.917Z,87.00
2018-03-06T23:27:11.740Z,103.70
2018-03-06T23:29:43.624Z,101.10
2018-03-06T23:32:14.420Z,101.25
2018-03-06T23:34:45.289Z,99.90
2018-03-06T23:37:16.108Z,94.80
2018-03-06T23:39:46.945Z,101.23
2018-03-06T23:42:17.781Z,94.00
2018-03-06T23:44:48.673Z,109.10
2018-03-06T23:47:19.493Z,93.60
2018-03-06T23:49:50.361Z,103.50
2018-03-06T23:52:21.174Z,104.40
2018-03-06T23:54:51.974Z,91.70
2018-03-06T23:57:22.799Z,97.63
2018-03-06T23:59:53.646Z,117.70
